Justo Sierra — XCSN — position and weather

sailwx.info

Track history (hours):
 
Tides and Currents Weather Stations Pressure Air Temp Water Temp Dewpoint Dewpoint Depression Visibility Wind Speed Wind Dir Waves Ship Positions

Oceanographic research ship Justo Sierra (Mexico)

Detailed information on ship capabilities available from University of Delaware's Ocean Information Center.

Last reported at 2017-May-15 21:07 UTC. Time now 2017-Jun-23 05:19 UTC.
Position N 20°39' W 096°42'.
Warning: this ship's position is 38 days out of date.

Length 30 m.

MMSI: 345030040.

Date/timePositionNaut miles runAvg speedWind from/ knotsBaromVisibWave heightAir tempDewpointWater temp
2017-May-15 21:07N 20°39' W 096°42'110.9
2017-May-15 21:00N 20°38' W 096°41'77 4.7
2017-May-15 04:47N 19°34' W 095°56'310.4
2017-May-15 04:30N 19°32' W 095°59'2 4.7
2017-May-15 04:00N 19°30' W 096°00'0 0.6
2017-May-15 03:30N 19°30' W 096°00'5 9.5
2017-May-15 03:00N 19°30' W 095°55'510.9
2017-May-15 02:30N 19°30' W 095°49'510.8
2017-May-15 02:00N 19°30' W 095°43'510.6
2017-May-15 01:30N 19°29' W 095°38'510.4
2017-May-15 01:00N 19°29' W 095°32'2 4.2
2017-May-15 00:26N 19°30' W 095°30'0 0.8
2017-May-15 00:00N 19°30' W 095°30'0 0.6
2017-May-14 23:30N 19°30' W 095°30'0 0.2
2017-May-14 23:00N 19°30' W 095°30'0 0.1
2017-May-14 22:30N 19°30' W 095°30'0 0.1
2017-May-14 22:00N 19°30' W 095°30'1 2.7
2017-May-14 21:30N 19°29' W 095°30'510.5
2017-May-14 21:00N 19°23' W 095°30'510.5
2017-May-14 20:30N 19°18' W 095°30'510.6
2017-May-14 20:00N 19°13' W 095°30'4 7.8
2017-May-14 19:30N 19°09' W 095°30'0 0.5
2017-May-14 18:56N 19°09' W 095°30'4 2.1
2017-May-14 17:10N 19°05' W 095°30'3 5.3
2017-May-14 16:41N 19°02' W 095°31'0 1.3
2017-May-14 16:30N 19°02' W 095°31'0 0.9
2017-May-14 15:59N 19°02' W 095°30'4 8.9
2017-May-14 15:30N 19°00' W 095°26'2211.4
2017-May-14 13:37N 18°52' W 095°05'111.6
2017-May-14 13:29N 18°52' W 095°03'3 6.0
2017-May-14 13:00N 18°50' W 095°01'1 1.2
2017-May-14 12:30N 18°50' W 095°00'19 4.0
2017-May-14 07:42N 19°09' W 094°59'4 7.4
2017-May-14 07:08N 19°13' W 094°59'410.5
2017-May-14 06:46N 19°17' W 094°59'13 6.7
2017-May-14 04:48N 19°30' W 094°59'0 0.4
2017-May-14 04:30N 19°30' W 094°59'1 0.3
2017-May-14 02:18N 19°30' W 094°59'33 9.3
2017-May-13 22:49N 20°03' W 095°01'0 0.9
2017-May-13 22:30N 20°02' W 095°01'0 0.6
2017-May-13 21:59N 20°02' W 095°01'1 1.2
2017-May-13 21:30N 20°02' W 095°01'1 0.7
2017-May-13 20:02N 20°01' W 095°00'0 0.4
2017-May-13 20:00N 20°01' W 095°00'0 0.5
2017-May-13 19:28N 20°00' W 095°00'0 0.8
2017-May-13 19:00N 20°00' W 094°60'510.0
2017-May-13 18:30N 20°01' W 094°55'610.7
2017-May-13 17:58N 20°01' W 094°49'  
2017-May-10 19:09N 18°44' W 094°30'0 0.7
2017-May-10 19:00N 18°44' W 094°30'4 0.3
2017-May-10 02:59N 18°46' W 094°26'510.1
2017-May-10 02:30N 18°46' W 094°31'1 2.7
2017-May-10 02:00N 18°46' W 094°29'2 2.8
2017-May-10 01:25N 18°46' W 094°28'  
Track history (hours):
 
Tides and Currents Weather Stations Pressure Air Temp Water Temp Dewpoint Dewpoint Depression Visibility Wind Speed Wind Dir Waves Ship Positions

Oceanographic research ship Justo Sierra (Mexico)

Detailed information on ship capabilities available from University of Delaware's Ocean Information Center.

Last reported at 2017-May-15 21:07 UTC. Time now 2017-Jun-23 05:19 UTC.
Position N 20°39' W 096°42'.
Warning: this ship's position is 38 days out of date.

Length 30 m.

MMSI: 345030040.

Date/timePositionNaut miles runAvg speedWind from/ knotsBaromVisibWave heightAir tempDewpointWater temp
2017-May-15 21:07N 20°39' W 096°42'110.9
2017-May-15 21:00N 20°38' W 096°41'77 4.7
2017-May-15 04:47N 19°34' W 095°56'310.4
2017-May-15 04:30N 19°32' W 095°59'2 4.7
2017-May-15 04:00N 19°30' W 096°00'0 0.6
2017-May-15 03:30N 19°30' W 096°00'5 9.5
2017-May-15 03:00N 19°30' W 095°55'510.9
2017-May-15 02:30N 19°30' W 095°49'510.8
2017-May-15 02:00N 19°30' W 095°43'510.6
2017-May-15 01:30N 19°29' W 095°38'510.4
2017-May-15 01:00N 19°29' W 095°32'2 4.2
2017-May-15 00:26N 19°30' W 095°30'0 0.8
2017-May-15 00:00N 19°30' W 095°30'0 0.6
2017-May-14 23:30N 19°30' W 095°30'0 0.2
2017-May-14 23:00N 19°30' W 095°30'0 0.1
2017-May-14 22:30N 19°30' W 095°30'0 0.1
2017-May-14 22:00N 19°30' W 095°30'1 2.7
2017-May-14 21:30N 19°29' W 095°30'510.5
2017-May-14 21:00N 19°23' W 095°30'510.5
2017-May-14 20:30N 19°18' W 095°30'510.6
2017-May-14 20:00N 19°13' W 095°30'4 7.8
2017-May-14 19:30N 19°09' W 095°30'0 0.5
2017-May-14 18:56N 19°09' W 095°30'4 2.1
2017-May-14 17:10N 19°05' W 095°30'3 5.3
2017-May-14 16:41N 19°02' W 095°31'0 1.3
2017-May-14 16:30N 19°02' W 095°31'0 0.9
2017-May-14 15:59N 19°02' W 095°30'4 8.9
2017-May-14 15:30N 19°00' W 095°26'2211.4
2017-May-14 13:37N 18°52' W 095°05'111.6
2017-May-14 13:29N 18°52' W 095°03'3 6.0
2017-May-14 13:00N 18°50' W 095°01'1 1.2
2017-May-14 12:30N 18°50' W 095°00'19 4.0
2017-May-14 07:42N 19°09' W 094°59'4 7.4
2017-May-14 07:08N 19°13' W 094°59'410.5
2017-May-14 06:46N 19°17' W 094°59'13 6.7
2017-May-14 04:48N 19°30' W 094°59'0 0.4
2017-May-14 04:30N 19°30' W 094°59'1 0.3
2017-May-14 02:18N 19°30' W 094°59'33 9.3
2017-May-13 22:49N 20°03' W 095°01'0 0.9
2017-May-13 22:30N 20°02' W 095°01'0 0.6
2017-May-13 21:59N 20°02' W 095°01'1 1.2
2017-May-13 21:30N 20°02' W 095°01'1 0.7
2017-May-13 20:02N 20°01' W 095°00'0 0.4
2017-May-13 20:00N 20°01' W 095°00'0 0.5
2017-May-13 19:28N 20°00' W 095°00'0 0.8
2017-May-13 19:00N 20°00' W 094°60'510.0
2017-May-13 18:30N 20°01' W 094°55'610.7
2017-May-13 17:58N 20°01' W 094°49'  
2017-May-10 19:09N 18°44' W 094°30'0 0.7
2017-May-10 19:00N 18°44' W 094°30'4 0.3
2017-May-10 02:59N 18°46' W 094°26'510.1
2017-May-10 02:30N 18°46' W 094°31'1 2.7
2017-May-10 02:00N 18°46' W 094°29'2 2.8
2017-May-10 01:25N 18°46' W 094°28'  

Dump ship's entire track history